Time;durP1;ratioP1;P1;durP2;ratioP2;P2;SDS_P1;SDS_P2;PMS_P1;PMS_P2;Temp;Humidity;BMP_temperature;BMP_pressure;BME280_temperature;BME280_humidity;BME280_pressure;Samples;Min_cycle;Max_cycle;Signal;HPM_P1;HPM_P2
2022/04/20 00:00:20;;;;;;;4.50;3.30;;;12.30;39.70;;;;;;7368771;19;20387;-41
2022/04/20 00:02:49;;;;;;;4.10;3.70;;;12.00;40.40;;;;;;7373795;19;20372;-42
2022/04/20 00:05:21;;;;;;;4.70;3.67;;;12.10;40.30;;;;;;7372587;19;20450;-40
2022/04/20 00:07:53;;;;;;;3.90;3.47;;;12.40;40.20;;;;;;7369171;19;20375;-40
2022/04/20 00:10:23;;;;;;;4.17;3.73;;;12.40;40.20;;;;;;7372124;19;20453;-40
2022/04/20 00:12:53;;;;;;;4.67;3.70;;;12.20;40.60;;;;;;7373174;19;20372;-40
2022/04/20 00:15:22;;;;;;;5.17;3.60;;;12.20;40.80;;;;;;7364770;19;20379;-41
2022/04/20 00:17:54;;;;;;;6.20;4.00;;;12.30;41.00;;;;;;7374889;19;20423;-40
2022/04/20 00:20:23;;;;;;;16.20;4.17;;;12.30;41.20;;;;;;7368819;19;20512;-41
2022/04/20 00:22:55;;;;;;;5.37;4.00;;;12.30;41.20;;;;;;7372342;19;20986;-41
2022/04/20 00:25:25;;;;;;;4.13;3.83;;;12.30;41.30;;;;;;7369667;19;20468;-41
2022/04/20 00:27:57;;;;;;;4.23;3.80;;;12.30;41.50;;;;;;7371230;19;20376;-41
2022/04/20 00:30:26;;;;;;;4.30;3.40;;;12.30;41.40;;;;;;7369050;19;21101;-41
2022/04/20 00:33:00;;;;;;;4.03;3.33;;;12.30;41.60;;;;;;7372576;19;21380;-41
2022/04/20 00:35:30;;;;;;;4.90;3.90;;;12.20;41.80;;;;;;7370580;19;20380;-41
2022/04/20 00:38:05;;;;;;;7.03;4.13;;;12.10;42.20;;;;;;7366860;19;20410;-42
2022/04/20 00:40:34;;;;;;;4.40;3.63;;;12.00;42.40;;;;;;7369864;19;20389;-40
2022/04/20 00:43:04;;;;;;;5.20;3.77;;;11.80;42.70;;;;;;7373409;19;20400;-43
2022/04/20 00:45:34;;;;;;;5.10;3.60;;;11.90;42.90;;;;;;7364953;19;20352;-41
2022/04/20 00:48:07;;;;;;;3.77;3.43;;;11.90;42.70;;;;;;7373466;19;20657;-41
2022/04/20 00:50:37;;;;;;;3.90;3.30;;;11.90;42.90;;;;;;7367922;19;21991;-41
2022/04/20 00:53:09;;;;;;;3.37;3.07;;;11.90;43.00;;;;;;7374039;19;20750;-41
2022/04/20 00:55:39;;;;;;;4.93;3.87;;;11.80;43.00;;;;;;7366296;19;21137;-41
2022/04/20 00:58:13;;;;;;;3.70;3.40;;;11.90;43.00;;;;;;7372304;19;20372;-41
2022/04/20 01:00:45;;;;;;;4.70;4.20;;;11.70;43.40;;;;;;7366756;19;20369;-41
2022/04/20 01:03:15;;;;;;;9.10;4.03;;;11.80;43.30;;;;;;7370360;19;20387;-39
2022/04/20 01:06:05;;;;;;;5.13;3.60;;;11.70;43.50;;;;;;7363535;19;20937;-39
2022/04/20 01:09:06;;;;;;;3.10;2.83;;;11.60;44.20;;;;;;7371048;19;20907;-41
2022/04/20 01:11:44;;;;;;;5.03;3.10;;;11.60;44.50;;;;;;7371516;19;20398;-39
2022/04/20 01:14:23;;;;;;;3.80;3.50;;;11.50;44.80;;;;;;7371891;19;20419;-39
2022/04/20 01:17:05;;;;;;;7.83;3.17;;;11.30;45.00;;;;;;7365276;19;20388;-41
2022/04/20 01:20:04;;;;;;;7.20;4.10;;;11.30;45.10;;;;;;7365219;19;20911;-40
2022/04/20 01:22:52;;;;;;;4.67;3.23;;;11.30;45.00;;;;;;7368959;19;20368;-40
2022/04/20 01:25:40;;;;;;;4.20;3.57;;;11.10;45.40;;;;;;7370639;19;20449;-40
2022/04/20 01:28:23;;;;;;;4.30;3.90;;;10.80;46.10;;;;;;7372213;19;20417;-39
2022/04/20 01:31:21;;;;;;;6.30;3.20;;;10.80;46.90;;;;;;7359964;19;20423;-39
2022/04/20 01:34:01;;;;;;;3.20;2.90;;;10.40;47.50;;;;;;7366986;19;20399;-40
2022/04/20 01:36:31;;;;;;;5.70;4.00;;;10.40;47.80;;;;;;7370425;19;20359;-40
2022/04/20 01:39:03;;;;;;;4.47;3.17;;;10.30;47.80;;;;;;7371656;19;20366;-40
2022/04/20 01:41:35;;;;;;;4.37;3.67;;;10.50;47.90;;;;;;7367717;19;20384;-35
2022/04/20 01:44:08;;;;;;;4.50;3.53;;;10.50;47.70;;;;;;7366616;19;20471;-36
2022/04/20 01:47:01;;;;;;;3.63;3.17;;;10.60;47.70;;;;;;7366787;19;20761;-36
2022/04/20 01:49:30;;;;;;;3.53;3.20;;;10.50;47.80;;;;;;7370080;19;20444;-36
2022/04/20 01:52:18;;;;;;;4.50;4.10;;;10.40;48.00;;;;;;7365940;19;20360;-36
2022/04/20 01:54:50;;;;;;;6.20;4.00;;;10.20;48.70;;;;;;7373588;19;20408;-36
2022/04/20 01:57:48;;;;;;;4.07;3.47;;;10.10;48.90;;;;;;7372195;19;20427;-36
2022/04/20 02:00:44;;;;;;;5.30;4.23;;;10.30;48.40;;;;;;7361782;19;20421;-36
2022/04/20 02:03:26;;;;;;;4.07;3.67;;;10.30;48.40;;;;;;7363236;19;20364;-36
2022/04/20 02:06:14;;;;;;;6.60;4.17;;;10.30;48.30;;;;;;7372876;19;20794;-36
2022/04/20 02:08:59;;;;;;;3.93;3.33;;;10.60;48.00;;;;;;7370301;19;20822;-36
2022/04/20 02:12:07;;;;;;;3.93;3.43;;;10.70;47.50;;;;;;7365072;19;20994;-36
2022/04/20 02:14:57;;;;;;;4.17;3.43;;;10.90;47.20;;;;;;7370662;19;20388;-36
2022/04/20 02:17:52;;;;;;;3.40;3.10;;;10.90;47.10;;;;;;7368773;19;20423;-41
2022/04/20 02:20:33;;;;;;;5.60;3.80;;;10.90;47.00;;;;;;7378623;19;20495;-40
2022/04/20 02:23:03;;;;;;;5.97;4.20;;;10.70;47.90;;;;;;7379200;19;20790;-40
2022/04/20 02:25:32;;;;;;;7.40;3.43;;;10.60;47.70;;;;;;7380566;19;20389;-41
2022/04/20 02:28:05;;;;;;;5.20;4.53;;;10.40;48.10;;;;;;7376162;19;20893;-40
2022/04/20 02:30:40;;;;;;;5.70;4.30;;;10.40;48.30;;;;;;7378142;19;20363;-40
2022/04/20 02:33:09;;;;;;;4.00;3.67;;;9.90;49.90;;;;;;7380029;19;21024;-41
2022/04/20 02:35:42;;;;;;;4.60;3.93;;;9.80;50.50;;;;;;7378004;19;20450;-40
2022/04/20 02:38:13;;;;;;;4.53;3.83;;;9.90;50.60;;;;;;7378054;19;20407;-40
2022/04/20 02:40:45;;;;;;;3.80;3.40;;;9.90;50.50;;;;;;7372214;19;20384;-40
2022/04/20 02:43:20;;;;;;;5.70;3.60;;;9.70;50.90;;;;;;7379048;19;20927;-40
2022/04/20 02:45:50;;;;;;;4.50;3.80;;;9.30;51.90;;;;;;7376542;19;20187;-40
2022/04/20 02:48:20;;;;;;;5.03;4.18;;;9.00;52.50;;;;;;7377664;19;20379;-40
2022/04/20 02:50:51;;;;;;;5.93;5.07;;;8.80;53.90;;;;;;7372214;19;20127;-40
2022/04/20 02:53:21;;;;;;;5.30;4.18;;;8.80;53.40;;;;;;7378733;19;20135;-40
2022/04/20 02:55:53;;;;;;;4.85;4.40;;;8.80;53.40;;;;;;7377718;19;20259;-40
2022/04/20 02:58:27;;;;;;;4.70;4.00;;;8.90;53.20;;;;;;7377965;19;20163;-39
2022/04/20 03:01:03;;;;;;;6.43;4.57;;;8.60;53.40;;;;;;7370440;19;20139;-39
2022/04/20 03:03:45;;;;;;;4.80;3.65;;;8.60;54.50;;;;;;7374105;19;20785;-40
2022/04/20 03:06:41;;;;;;;4.80;4.00;;;8.50;54.20;;;;;;7379394;19;20187;-39
2022/04/20 03:09:17;;;;;;;4.45;3.67;;;8.40;54.40;;;;;;7371588;19;20156;-40
2022/04/20 03:11:49;;;;;;;5.82;4.68;;;8.40;54.70;;;;;;7372930;19;20872;-40
2022/04/20 03:14:22;;;;;;;6.18;4.70;;;8.40;54.70;;;;;;7376304;19;20132;-41
2022/04/20 03:16:57;;;;;;;5.80;4.70;;;8.10;55.20;;;;;;7369254;19;20157;-41
2022/04/20 03:19:27;;;;;;;5.05;4.45;;;7.80;56.00;;;;;;7375788;19;20708;-41
2022/04/20 03:21:56;;;;;;;7.07;5.03;;;7.70;56.20;;;;;;7373202;19;20142;-40
2022/04/20 03:24:29;;;;;;;5.22;4.22;;;7.80;56.10;;;;;;7374890;19;20128;-41
2022/04/20 03:27:09;;;;;;;5.20;4.35;;;7.80;56.40;;;;;;7373578;19;20557;-40
2022/04/20 03:29:55;;;;;;;5.38;3.78;;;7.70;56.90;;;;;;7378084;19;20127;-40
2022/04/20 03:32:25;;;;;;;4.75;4.25;;;7.70;56.80;;;;;;7362597;19;20135;-42
2022/04/20 03:34:54;;;;;;;6.72;4.50;;;7.70;56.60;;;;;;7376161;19;20143;-41
2022/04/20 03:37:24;;;;;;;5.68;4.57;;;7.70;56.80;;;;;;7376699;19;20848;-40
2022/04/20 03:39:54;;;;;;;4.75;4.07;;;7.60;56.80;;;;;;7376984;19;20155;-41
2022/04/20 03:42:26;;;;;;;4.32;3.95;;;7.60;56.80;;;;;;7372452;19;20461;-42
2022/04/20 03:45:02;;;;;;;4.28;3.90;;;7.60;56.70;;;;;;7372566;19;20154;-42
2022/04/20 03:47:32;;;;;;;5.35;4.20;;;7.60;56.70;;;;;;7372652;19;20234;-42
2022/04/20 03:50:01;;;;;;;5.85;3.95;;;7.60;57.00;;;;;;7374266;19;20147;-41
2022/04/20 03:52:39;;;;;;;4.55;4.13;;;7.60;56.60;;;;;;7369949;19;20140;-39
2022/04/20 03:55:11;;;;;;;4.43;4.03;;;7.70;56.70;;;;;;7369437;19;20123;-42
2022/04/20 03:57:43;;;;;;;4.95;4.10;;;7.70;56.40;;;;;;7369560;19;20139;-41
2022/04/20 04:00:20;;;;;;;4.35;3.40;;;7.60;56.30;;;;;;7371061;19;20127;-42
2022/04/20 04:02:55;;;;;;;4.75;4.03;;;7.60;56.50;;;;;;7371074;19;20435;-41
2022/04/20 04:05:37;;;;;;;4.60;3.75;;;7.70;56.10;;;;;;7369799;19;20140;-41
2022/04/20 04:08:26;;;;;;;3.67;3.38;;;7.60;56.10;;;;;;7363761;19;20717;-41
2022/04/20 04:10:56;;;;;;;4.10;3.70;;;7.50;56.80;;;;;;7373595;19;20184;-42
2022/04/20 04:13:28;;;;;;;6.00;4.05;;;7.50;56.50;;;;;;7364903;19;20216;-40
2022/04/20 04:16:02;;;;;;;4.18;3.58;;;7.30;56.80;;;;;;7371398;19;20139;-42
2022/04/20 04:18:35;;;;;;;5.75;4.00;;;7.30;57.10;;;;;;7362250;19;20180;-40
2022/04/20 04:21:10;;;;;;;5.13;3.88;;;7.40;57.00;;;;;;7369207;19;20132;-37
2022/04/20 04:23:43;;;;;;;4.00;3.60;;;7.30;56.80;;;;;;7368687;19;20170;-36
2022/04/20 04:26:17;;;;;;;5.72;3.70;;;7.20;57.30;;;;;;7365369;19;20123;-37
2022/04/20 04:28:51;;;;;;;3.58;3.28;;;7.40;56.70;;;;;;7375020;19;20159;-37
2022/04/20 04:31:24;;;;;;;7.43;3.70;;;7.40;56.90;;;;;;7364965;19;20135;-36
2022/04/20 04:33:56;;;;;;;5.60;4.80;;;7.20;56.60;;;;;;7369239;19;20143;-37
2022/04/20 04:36:25;;;;;;;6.35;4.18;;;7.40;57.10;;;;;;7370039;19;20155;-37
2022/04/20 04:38:58;;;;;;;5.70;4.53;;;7.50;56.60;;;;;;7362059;19;20250;-37
2022/04/20 04:41:34;;;;;;;8.02;4.15;;;7.60;56.10;;;;;;7369547;19;20135;-34
2022/04/20 04:44:04;;;;;;;4.22;3.83;;;7.70;55.70;;;;;;7372939;19;20692;-37
2022/04/20 04:49:31;;;;;;;6.22;4.18;;;7.60;55.80;;;;;;7371518;19;20147;-39
2022/04/20 04:52:01;;;;;;;14.00;5.70;;;7.70;55.70;;;;;;7375272;19;20135;-41
2022/04/20 04:54:37;;;;;;;5.57;4.05;;;7.40;56.20;;;;;;7376036;19;20119;-41
2022/04/20 04:57:09;;;;;;;5.22;3.95;;;7.40;56.60;;;;;;7375143;19;20127;-41
2022/04/20 04:59:43;;;;;;;5.90;4.43;;;7.20;56.70;;;;;;7370884;19;20143;-40
2022/04/20 05:02:15;;;;;;;5.45;4.60;;;7.10;57.40;;;;;;7370608;19;20147;-41
2022/04/20 05:04:44;;;;;;;5.25;4.10;;;7.30;57.10;;;;;;7366820;19;20726;-41
2022/04/20 05:07:15;;;;;;;5.20;4.32;;;7.50;57.40;;;;;;7375455;19;20135;-40
2022/04/20 05:10:01;;;;;;;6.25;5.07;;;7.50;57.10;;;;;;7370053;19;20132;-40
2022/04/20 05:12:36;;;;;;;4.80;4.40;;;7.20;57.50;;;;;;7371443;19;20728;-41
2022/04/20 05:15:10;;;;;;;4.90;4.25;;;6.80;59.00;;;;;;7361965;19;20146;-41
2022/04/20 05:17:52;;;;;;;8.70;4.82;;;6.80;59.30;;;;;;7363875;19;20202;-41
2022/04/20 05:20:25;;;;;;;5.72;4.80;;;7.00;58.80;;;;;;7352655;19;20595;-41
2022/04/20 05:22:55;;;;;;;7.63;4.43;;;7.20;58.30;;;;;;7371188;19;20131;-39
2022/04/20 05:25:25;;;;;;;7.55;4.45;;;7.30;58.00;;;;;;7372376;19;20142;-40
2022/04/20 05:27:55;;;;;;;5.65;4.10;;;7.50;57.70;;;;;;7359510;19;20139;-40
2022/04/20 05:30:29;;;;;;;6.70;4.63;;;7.90;56.70;;;;;;7365971;19;20131;-40
2022/04/20 05:33:01;;;;;;;7.40;4.20;;;7.70;57.00;;;;;;7371064;19;21101;-40
2022/04/20 05:35:34;;;;;;;5.85;4.93;;;8.10;57.10;;;;;;7375209;19;20131;-39
2022/04/20 05:43:35;;;;;;;5.40;4.90;;;8.20;55.30;;;;;;7367405;19;20142;-39
2022/04/20 05:46:07;;;;;;;5.25;4.25;;;8.20;55.30;;;;;;7369083;19;20640;-40
2022/04/20 05:49:10;;;;;;;4.95;4.45;;;8.10;55.90;;;;;;7368015;19;20475;-39
2022/04/20 05:51:39;;;;;;;5.45;4.90;;;8.60;54.50;;;;;;7362597;19;20131;-39
2022/04/20 05:54:12;;;;;;;7.88;4.95;;;8.70;54.10;;;;;;7357594;19;20966;-43
2022/04/20 05:56:45;;;;;;;5.55;4.88;;;8.90;54.10;;;;;;7377593;19;20154;-42
2022/04/20 05:59:16;;;;;;;5.13;4.28;;;8.90;53.40;;;;;;7378417;19;20199;-43
2022/04/20 06:01:54;;;;;;;6.97;4.03;;;9.10;52.40;;;;;;7380216;19;20151;-43
2022/04/20 06:04:30;;;;;;;7.40;4.63;;;9.30;53.20;;;;;;7371982;19;20140;-44
2022/04/20 06:07:06;;;;;;;4.82;4.10;;;9.50;52.90;;;;;;7382783;19;20376;-44
2022/04/20 06:09:48;;;;;;;4.80;4.30;;;9.50;52.20;;;;;;7380477;19;20287;-43
2022/04/20 06:12:17;;;;;;;4.63;4.20;;;9.70;51.20;;;;;;7365867;19;20356;-46
2022/04/20 06:15:17;;;;;;;7.90;5.45;;;9.90;50.90;;;;;;7371434;19;21574;-43
2022/04/20 06:18:07;;;;;;;4.40;3.43;;;10.00;48.40;;;;;;7371250;19;20155;-44
2022/04/20 06:20:40;;;;;;;5.57;3.60;;;10.10;48.50;;;;;;7377250;19;20824;-45
2022/04/20 06:23:30;;;;;;;4.33;3.70;;;10.30;47.50;;;;;;7377664;19;20362;-45
2022/04/20 06:26:12;;;;;;;6.10;4.33;;;10.30;46.40;;;;;;7374804;19;20379;-45
2022/04/20 06:29:22;;;;;;;5.07;3.80;;;10.50;47.10;;;;;;7376152;19;20772;-45
2022/04/20 06:32:08;;;;;;;4.53;3.50;;;10.60;46.00;;;;;;7374429;19;20371;-45
2022/04/20 06:34:58;;;;;;;3.87;3.37;;;10.90;45.80;;;;;;7376016;19;20392;-45
2022/04/20 06:37:48;;;;;;;6.10;3.80;;;11.10;44.10;;;;;;7374818;19;20375;-45
2022/04/20 06:40:31;;;;;;;4.27;3.50;;;11.30;43.90;;;;;;7373838;19;20785;-44
2022/04/20 06:43:19;;;;;;;3.60;3.30;;;11.30;43.20;;;;;;7370852;19;20368;-43
2022/04/20 06:46:23;;;;;;;4.63;3.80;;;11.40;43.10;;;;;;7368853;19;20408;-46
2022/04/20 06:49:15;;;;;;;4.00;3.67;;;11.70;42.80;;;;;;7380962;19;20380;-46
2022/04/20 07:00:25;;;;;;;3.37;3.07;;;11.90;40.60;;;;;;7373297;19;20753;-44
2022/04/20 07:03:16;;;;;;;3.47;3.17;;;11.90;40.30;;;;;;7369916;19;20369;-44
2022/04/20 07:05:51;;;;;;;3.60;3.13;;;11.60;41.00;;;;;;7368923;19;20399;-44
2022/04/20 07:08:50;;;;;;;3.93;3.50;;;11.70;40.80;;;;;;7374878;19;20411;-45
2022/04/20 07:11:28;;;;;;;3.27;3.00;;;11.80;41.00;;;;;;7368392;19;20430;-45
2022/04/20 07:13:59;;;;;;;4.13;3.27;;;11.80;40.70;;;;;;7368722;19;20399;-44
2022/04/20 07:16:32;;;;;;;7.90;3.20;;;11.90;40.50;;;;;;7366211;19;20373;-44
2022/04/20 07:19:13;;;;;;;3.40;2.90;;;11.80;40.60;;;;;;7370457;19;20459;-44
2022/04/20 07:22:07;;;;;;;3.70;3.00;;;11.90;40.50;;;;;;7373787;19;20424;-45
2022/04/20 07:25:06;;;;;;;3.97;3.43;;;12.10;40.10;;;;;;7376279;19;20408;-45
2022/04/20 07:27:58;;;;;;;3.30;3.00;;;11.90;39.70;;;;;;7373311;19;20833;-46
2022/04/20 07:30:54;;;;;;;5.10;4.03;;;11.90;40.30;;;;;;7372777;19;20941;-45
2022/04/20 07:33:42;;;;;;;13.10;4.47;;;12.00;40.20;;;;;;7374576;19;20386;-44
2022/04/20 07:36:32;;;;;;;4.80;3.20;;;11.90;39.80;;;;;;7362489;19;20397;-45
2022/04/20 07:39:22;;;;;;;3.70;3.30;;;12.20;40.80;;;;;;7376884;19;21056;-45
2022/04/20 07:42:11;;;;;;;4.93;2.97;;;12.60;39.20;;;;;;7365306;19;21021;-48
2022/04/20 07:44:43;;;;;;;4.70;3.80;;;12.90;38.80;;;;;;7368897;19;20385;-47
2022/04/20 07:47:41;;;;;;;4.03;3.53;;;12.90;38.40;;;;;;7360163;19;20868;-47
2022/04/20 07:50:42;;;;;;;5.30;3.90;;;13.00;38.50;;;;;;7372967;19;20403;-47
2022/04/20 07:53:28;;;;;;;5.43;3.20;;;13.30;38.40;;;;;;7370462;19;20972;-44
2022/04/20 07:56:23;;;;;;;3.70;3.30;;;13.50;38.40;;;;;;7374648;19;20412;-44
2022/04/20 07:59:24;;;;;;;3.30;3.00;;;13.90;37.60;;;;;;7376047;19;20393;-42
2022/04/20 08:02:15;;;;;;;3.67;3.27;;;14.20;36.60;;;;;;7368403;19;20428;-43
2022/04/20 08:05:17;;;;;;;3.67;3.37;;;14.50;36.00;;;;;;7373201;19;20802;-43
2022/04/20 08:07:48;;;;;;;3.40;3.10;;;14.90;35.30;;;;;;7373099;19;20426;-43
2022/04/20 08:10:17;;;;;;;2.87;2.67;;;15.00;35.40;;;;;;7370938;19;20388;-42
2022/04/20 08:12:47;;;;;;;3.40;3.10;;;15.10;34.90;;;;;;7374985;19;20509;-42
2022/04/20 08:15:24;;;;;;;3.40;2.90;;;15.30;34.40;;;;;;7373612;19;20416;-43
2022/04/20 08:17:58;;;;;;;4.20;3.57;;;15.70;34.00;;;;;;7370989;19;21052;-43
2022/04/20 08:20:59;;;;;;;4.53;3.77;;;15.70;33.20;;;;;;7374034;19;20420;-42
2022/04/20 08:23:32;;;;;;;4.20;2.90;;;15.70;34.00;;;;;;7373912;19;20405;-42
2022/04/20 08:26:04;;;;;;;9.27;3.57;;;15.60;33.40;;;;;;7373369;19;20380;-43
2022/04/20 08:28:34;;;;;;;3.37;3.07;;;15.90;33.70;;;;;;7375419;19;20388;-43
2022/04/20 08:31:05;;;;;;;6.60;3.20;;;16.00;33.80;;;;;;7375628;19;20407;-42
2022/04/20 08:33:40;;;;;;;4.80;3.30;;;16.30;34.60;;;;;;7374447;19;20419;-43
2022/04/20 08:36:11;;;;;;;3.57;3.07;;;16.70;33.50;;;;;;7374788;19;20949;-43
2022/04/20 08:38:41;;;;;;;3.40;3.10;;;17.00;33.70;;;;;;7377071;19;20383;-43
2022/04/20 08:41:14;;;;;;;3.17;2.80;;;17.40;32.70;;;;;;7375339;19;20369;-42
2022/04/20 08:43:46;;;;;;;3.97;3.43;;;17.60;32.40;;;;;;7374192;19;20451;-42
2022/04/20 08:46:20;;;;;;;3.40;3.10;;;17.90;31.50;;;;;;7373197;19;20736;-43
2022/04/20 08:48:55;;;;;;;3.00;2.70;;;18.20;31.50;;;;;;7372813;19;20380;-44
2022/04/20 08:52:37;;;;;;;3.33;3.07;;;18.60;31.00;;;;;;7374996;19;20424;-43
2022/04/20 08:54:21;;;;;;;4.43;3.90;;;18.60;30.90;;;;;;7374451;19;21163;-43
2022/04/20 08:59:47;;;;;;;3.20;2.90;;;19.00;29.90;;;;;;7375720;19;20417;-45
2022/04/20 09:02:21;;;;;;;3.97;3.47;;;19.40;29.30;;;;;;7373477;19;20929;-46
2022/04/20 09:04:54;;;;;;;3.10;2.90;;;19.90;29.00;;;;;;7376636;19;20384;-45
2022/04/20 09:07:31;;;;;;;3.33;2.53;;;20.30;28.70;;;;;;7374668;19;20407;-45
2022/04/20 09:10:03;;;;;;;4.40;3.20;;;20.60;27.80;;;;;;7377837;19;20372;-45
2022/04/20 09:12:33;;;;;;;3.10;2.80;;;20.80;27.00;;;;;;7371519;19;20398;-45
2022/04/20 09:15:05;;;;;;;2.90;2.60;;;20.90;27.10;;;;;;7373141;19;20392;-45
2022/04/20 09:17:44;;;;;;;3.33;2.97;;;21.30;26.40;;;;;;7370440;19;20823;-44
2022/04/20 09:20:24;;;;;;;2.73;2.40;;;21.20;26.50;;;;;;7367540;19;20797;-44
2022/04/20 09:23:03;;;;;;;3.40;2.17;;;21.70;26.10;;;;;;7376869;19;20769;-44
2022/04/20 09:25:34;;;;;;;3.00;2.47;;;22.20;26.00;;;;;;7373515;19;20387;-45
2022/04/20 09:28:07;;;;;;;3.23;2.83;;;22.50;25.10;;;;;;7375258;19;20376;-44
2022/04/20 09:30:40;;;;;;;2.33;2.13;;;22.90;24.20;;;;;;7371411;19;20408;-38
2022/04/20 09:33:13;;;;;;;4.40;2.70;;;22.80;24.90;;;;;;7375176;19;21462;-37
2022/04/20 09:35:49;;;;;;;2.80;2.23;;;22.70;24.40;;;;;;7374996;19;20384;-36
2022/04/20 09:38:24;;;;;;;2.77;2.40;;;23.60;24.10;;;;;;7374280;19;20894;-36
2022/04/20 09:41:10;;;;;;;3.30;3.00;;;24.20;23.70;;;;;;7371829;19;20491;-36
2022/04/20 09:43:42;;;;;;;3.30;2.37;;;24.30;23.60;;;;;;7375580;19;20369;-35
2022/04/20 09:49:09;;;;;;;2.50;2.30;;;25.20;22.30;;;;;;7372538;19;20408;-38
2022/04/20 09:51:46;;;;;;;3.50;2.80;;;24.80;21.80;;;;;;7373497;19;20442;-36
2022/04/20 09:54:27;;;;;;;6.90;3.00;;;24.90;22.00;;;;;;7374102;19;20381;-36
2022/04/20 09:57:11;;;;;;;2.70;2.50;;;25.30;21.40;;;;;;7366745;19;21015;-36
2022/04/20 09:59:58;;;;;;;3.20;2.57;;;25.80;21.50;;;;;;7370851;19;21532;-44
2022/04/20 10:02:30;;;;;;;2.60;2.40;;;26.20;20.70;;;;;;7373238;19;20771;-43
2022/04/20 10:05:00;;;;;;;3.10;2.40;;;26.80;20.80;;;;;;7373707;19;21393;-44
2022/04/20 10:07:37;;;;;;;3.10;2.13;;;27.20;19.20;;;;;;7373856;19;20376;-45
2022/04/20 10:10:10;;;;;;;2.30;2.10;;;26.50;20.00;;;;;;7377323;19;20368;-44
2022/04/20 10:12:41;;;;;;;2.57;2.37;;;26.80;20.00;;;;;;7375083;19;20455;-43
2022/04/20 10:17:58;;;;;;;2.87;2.50;;;27.00;19.00;;;;;;7372512;19;20442;-43
2022/04/20 10:20:34;;;;;;;4.20;3.80;;;27.90;18.80;;;;;;7373606;19;20406;-43
2022/04/20 10:23:09;;;;;;;4.40;3.97;;;28.60;18.80;;;;;;7374275;19;20388;-44
2022/04/20 10:25:43;;;;;;;2.40;2.20;;;29.30;18.10;;;;;;7372466;19;20570;-43
2022/04/20 10:28:21;;;;;;;4.33;2.60;;;29.10;18.00;;;;;;7373605;19;20406;-44
2022/04/20 10:31:14;;;;;;;3.47;2.93;;;29.10;18.40;;;;;;7370392;19;20766;-45
2022/04/20 10:33:45;;;;;;;5.97;2.97;;;30.10;17.80;;;;;;7372480;19;21165;-44
2022/04/20 10:36:34;;;;;;;2.87;2.67;;;30.60;17.20;;;;;;7370954;19;21017;-43
2022/04/20 10:39:26;;;;;;;2.20;2.00;;;30.10;17.30;;;;;;7372248;19;20417;-44
2022/04/20 10:42:25;;;;;;;2.93;2.63;;;29.50;17.10;;;;;;7378641;19;20886;-43
2022/04/20 10:45:01;;;;;;;2.90;2.60;;;28.80;17.80;;;;;;7381697;19;20431;-44
2022/04/20 10:47:33;;;;;;;3.10;2.13;;;29.80;17.60;;;;;;7378633;19;20786;-44
2022/04/20 10:50:20;;;;;;;2.60;2.40;;;30.70;16.80;;;;;;7381248;19;20371;-44
2022/04/20 10:52:56;;;;;;;3.13;2.57;;;31.60;15.90;;;;;;7381826;19;20383;-44
2022/04/20 10:55:55;;;;;;;2.33;2.13;;;31.00;16.10;;;;;;7376887;19;20444;-44
2022/04/20 10:58:25;;;;;;;3.03;2.70;;;31.50;15.90;;;;;;7378282;19;20419;-44
2022/04/20 11:01:11;;;;;;;2.80;2.60;;;31.50;15.90;;;;;;7378335;19;20396;-44
2022/04/20 11:04:10;;;;;;;3.10;2.10;;;32.00;15.70;;;;;;7378163;19;20376;-43
2022/04/20 11:07:32;;;;;;;2.90;2.43;;;31.50;15.90;;;;;;7377597;19;20416;-45
2022/04/20 11:10:10;;;;;;;2.53;2.33;;;32.40;15.40;;;;;;7378138;19;20439;-44
2022/04/20 11:21:23;;;;;;;2.23;2.03;;;32.00;15.10;;;;;;7374762;19;20383;-44
2022/04/20 11:23:57;;;;;;;2.57;2.37;;;32.20;15.10;;;;;;7378647;19;20389;-44
2022/04/20 11:26:32;;;;;;;2.70;2.37;;;32.40;15.00;;;;;;7378744;19;21116;-44
2022/04/20 11:29:12;;;;;;;3.13;1.73;;;32.50;14.90;;;;;;7379087;19;20790;-44
2022/04/20 11:31:45;;;;;;;2.33;2.07;;;32.20;15.60;;;;;;7374788;19;20364;-44
2022/04/20 11:34:16;;;;;;;3.23;2.30;;;32.80;14.90;;;;;;7377448;19;20368;-44
2022/04/20 11:36:53;;;;;;;2.60;2.40;;;33.10;14.20;;;;;;7372679;19;20391;-44
2022/04/20 11:39:25;;;;;;;2.60;2.33;;;33.60;14.40;;;;;;7362465;19;20427;-46
2022/04/20 11:41:56;;;;;;;2.80;2.60;;;33.60;14.30;;;;;;7373246;19;20408;-44
2022/04/20 11:44:31;;;;;;;3.00;2.80;;;34.20;14.10;;;;;;7371334;19;20380;-43
2022/04/20 11:47:07;;;;;;;2.80;2.50;;;33.00;14.60;;;;;;7372003;19;20423;-44
2022/04/20 11:49:40;;;;;;;3.03;2.83;;;33.40;14.90;;;;;;7376152;19;20738;-44
2022/04/20 11:52:11;;;;;;;3.50;3.20;;;33.80;14.60;;;;;;7368228;19;20372;-44
2022/04/20 11:54:48;;;;;;;2.30;2.10;;;34.00;14.40;;;;;;7377259;19;20714;-44
2022/04/20 11:57:31;;;;;;;3.15;2.42;;;34.60;14.30;;;;;;7375660;19;20363;-44
2022/04/20 12:00:04;;;;;;;2.37;2.17;;;35.90;13.60;;;;;;7376501;19;20130;-41
2022/04/20 12:02:44;;;;;;;3.00;2.70;;;34.10;13.20;;;;;;7372016;19;20941;-40
2022/04/20 12:05:20;;;;;;;2.67;2.20;;;33.90;13.60;;;;;;7369943;19;20395;-41
2022/04/20 12:07:53;;;;;;;2.47;2.20;;;33.70;13.70;;;;;;7370468;19;20801;-41
2022/04/20 12:10:25;;;;;;;3.47;2.23;;;33.80;13.90;;;;;;7371704;19;20372;-42
2022/04/20 12:12:58;;;;;;;3.17;2.50;;;34.50;13.40;;;;;;7376726;19;20387;-43
2022/04/20 12:15:30;;;;;;;3.00;2.70;;;33.70;13.70;;;;;;7375778;19;20983;-41
2022/04/20 12:18:05;;;;;;;3.00;2.20;;;33.00;14.00;;;;;;7369013;19;20464;-42
2022/04/20 12:20:34;;;;;;;2.50;2.30;;;33.20;13.90;;;;;;7364329;19;20792;-42
2022/04/20 12:23:09;;;;;;;2.40;2.20;;;33.80;14.10;;;;;;7374048;19;20412;-43
2022/04/20 12:25:41;;;;;;;6.37;2.63;;;34.80;13.70;;;;;;7362380;19;20400;-42
2022/04/20 12:28:35;;;;;;;2.67;2.47;;;35.10;13.30;;;;;;7369461;19;21024;-42
2022/04/20 12:31:03;;;;;;;2.57;1.73;;;34.90;13.50;;;;;;7375771;19;20392;-38
2022/04/20 12:33:33;;;;;;;2.50;2.30;;;34.70;13.40;;;;;;7369607;19;21021;-38
2022/04/20 12:36:14;;;;;;;3.10;2.80;;;34.30;13.60;;;;;;7365301;19;20408;-38
2022/04/20 12:38:53;;;;;;;2.37;2.17;;;34.10;13.50;;;;;;7369919;19;21012;-38
2022/04/20 12:41:42;;;;;;;2.20;2.00;;;34.70;13.60;;;;;;7375206;19;20419;-38
2022/04/20 12:44:50;;;;;;;3.40;2.70;;;35.10;13.20;;;;;;7376804;19;20408;-38
2022/04/20 12:47:39;;;;;;;2.23;2.03;;;34.70;13.20;;;;;;7372921;19;20440;-38
2022/04/20 12:50:37;;;;;;;2.30;2.10;;;34.90;13.00;;;;;;7376709;19;20942;-38
2022/04/20 12:53:06;;;;;;;3.43;2.30;;;35.40;12.80;;;;;;7373195;19;20376;-38
2022/04/20 13:02:01;;;;;;;3.23;2.97;;;34.10;13.50;;;;;;7370203;19;20410;-38
2022/04/20 13:04:19;;;;;;;2.40;2.20;;;34.60;12.90;;;;;;7368448;19;20380;-42
2022/04/20 13:06:51;;;;;;;3.50;2.60;;;34.50;12.60;;;;;;7372970;19;20371;-43
2022/04/20 13:09:20;;;;;;;3.00;2.13;;;34.40;12.80;;;;;;7368246;19;20734;-42
2022/04/20 13:11:51;;;;;;;2.33;2.13;;;34.80;12.90;;;;;;7367662;19;20413;-43
2022/04/20 13:14:22;;;;;;;2.50;2.30;;;34.40;12.80;;;;;;7369550;19;20380;-42
2022/04/20 13:16:54;;;;;;;2.27;2.10;;;32.60;14.00;;;;;;7339311;19;20814;-43
2022/04/20 13:19:29;;;;;;;2.93;2.37;;;32.60;13.90;;;;;;7355525;19;20459;-42
2022/04/20 13:22:00;;;;;;;3.07;2.40;;;32.60;13.80;;;;;;7372503;19;20496;-42
2022/04/20 13:29:59;;;;;;;4.20;2.60;;;28.90;15.60;;;;;;7366487;19;20787;-43
2022/04/20 13:32:32;;;;;;;2.37;2.17;;;28.00;16.00;;;;;;7362736;19;20416;-44
2022/04/20 13:35:04;;;;;;;3.00;2.70;;;26.80;17.30;;;;;;7368755;19;20392;-44
2022/04/20 13:37:36;;;;;;;2.47;2.27;;;26.00;17.30;;;;;;7374109;19;20388;-44
2022/04/20 13:40:07;;;;;;;3.13;2.83;;;24.80;18.20;;;;;;7370175;19;20412;-45
2022/04/20 13:42:37;;;;;;;2.50;2.30;;;23.80;18.90;;;;;;7366815;19;20364;-43
2022/04/20 13:45:11;;;;;;;3.37;2.37;;;22.70;19.40;;;;;;7369151;19;20384;-44
2022/04/20 13:47:41;;;;;;;3.00;2.20;;;22.50;19.90;;;;;;7362894;19;20436;-43
2022/04/20 13:50:13;;;;;;;2.70;2.37;;;21.70;20.20;;;;;;7356240;19;20370;-43
2022/04/20 13:52:46;;;;;;;2.53;2.33;;;20.90;20.50;;;;;;7359272;19;20426;-43
2022/04/20 13:55:18;;;;;;;4.17;3.00;;;20.70;21.30;;;;;;7369361;19;20447;-43
2022/04/20 13:57:47;;;;;;;2.30;1.87;;;20.80;21.10;;;;;;7368135;19;20357;-43
2022/04/20 14:00:18;;;;;;;3.80;2.23;;;21.20;21.00;;;;;;7371964;19;20365;-43
2022/04/20 14:02:52;;;;;;;3.50;2.60;;;21.40;20.90;;;;;;7370800;19;20635;-44
2022/04/20 14:05:24;;;;;;;3.07;2.47;;;21.60;21.10;;;;;;7366356;19;20807;-45
2022/04/20 14:07:53;;;;;;;2.80;2.20;;;21.70;21.00;;;;;;7372995;19;20860;-44
2022/04/20 14:10:23;;;;;;;3.60;3.00;;;21.40;21.00;;;;;;7367481;19;20403;-45
2022/04/20 14:12:55;;;;;;;2.23;2.07;;;21.30;21.10;;;;;;7369119;19;20929;-44
2022/04/20 14:15:25;;;;;;;4.80;2.73;;;21.40;20.90;;;;;;7376528;19;20878;-44
2022/04/20 14:17:57;;;;;;;3.40;2.30;;;21.00;20.90;;;;;;7371882;19;20983;-42
2022/04/20 14:20:29;;;;;;;2.70;2.50;;;20.30;21.70;;;;;;7371209;19;20399;-42
2022/04/20 14:22:58;;;;;;;2.50;2.30;;;20.30;22.20;;;;;;7379068;19;20739;-45
2022/04/20 14:33:41;;;;;;;3.60;2.70;;;20.60;21.80;;;;;;7376031;19;20901;-44
2022/04/20 14:36:13;;;;;;;4.00;3.00;;;20.70;21.70;;;;;;7375181;19;20409;-44